Kalmthout, Belgium
Current Conditions -  °F | °C
As of 11:25 AM on Thursday 23 Oct 2014 (Local Time) from EHWO Reporting Station
Overcast Overcast  
Wind Chill: 55°   Ceiling: 12000
Heat Index: 55°   Visibility: 6mi
Dew Point: 48°   Wind: 9mph
Humidity: 77%   Direction: 210°SSW
Pressure: 30.18"   Gusts: NA
Location:  51.38°N, 4.48°E
Report Text: EHWO 230925Z AUTO 21008KT 9999 FEW037 OVC120 13/09 Q1022 BLU 22007KT 9999 FEW013 SCT028 BKN130 BECMG SCT016 SCT028 BKN130
Loading
Personal Weather Stations






























Interactive Weather Map
Tropical Storm Tracking
New forecast layout! Learn more

10-Day Weather Forecast

Advertisements
Track Severe Weather on mobile